sensor_id;sensor_type;location;lat;lon;timestamp;P1;durP1;ratioP1;P2;durP2;ratioP2
61473;SDS011;53694;49.784;30.150;2022-09-29T00:00:30;4.54;;;3.24;;
61473;SDS011;53694;49.784;30.150;2022-09-29T00:01:32;6.57;;;3.91;;
61473;SDS011;53694;49.784;30.150;2022-09-29T00:02:33;7.42;;;4.86;;
61473;SDS011;53694;49.784;30.150;2022-09-29T00:03:35;9.05;;;5.12;;
61473;SDS011;53694;49.784;30.150;2022-09-29T00:04:37;8.15;;;4.79;;
61473;SDS011;53694;49.784;30.150;2022-09-29T00:05:39;10.61;;;5.36;;
61473;SDS011;53694;49.784;30.150;2022-09-29T00:06:49;12.51;;;5.59;;
61473;SDS011;53694;49.784;30.150;2022-09-29T00:07:50;12.98;;;6.00;;
61473;SDS011;53694;49.784;30.150;2022-09-29T00:08:52;21.19;;;9.41;;
61473;SDS011;53694;49.784;30.150;2022-09-29T00:09:53;24.16;;;10.24;;
61473;SDS011;53694;49.784;30.150;2022-09-29T00:10:55;21.71;;;9.67;;
61473;SDS011;53694;49.784;30.150;2022-09-29T00:11:57;15.76;;;7.99;;
61473;SDS011;53694;49.784;30.150;2022-09-29T00:12:59;17.14;;;7.03;;
61473;SDS011;53694;49.784;30.150;2022-09-29T00:14:00;17.03;;;8.94;;
61473;SDS011;53694;49.784;30.150;2022-09-29T00:15:02;24.72;;;11.23;;
61473;SDS011;53694;49.784;30.150;2022-09-29T00:16:05;25.42;;;12.55;;
61473;SDS011;53694;49.784;30.150;2022-09-29T00:17:07;21.49;;;11.41;;
61473;SDS011;53694;49.784;30.150;2022-09-29T00:18:11;22.32;;;11.76;;
61473;SDS011;53694;49.784;30.150;2022-09-29T00:19:12;30.97;;;14.84;;
61473;SDS011;53694;49.784;30.150;2022-09-29T00:20:15;27.21;;;13.40;;
61473;SDS011;53694;49.784;30.150;2022-09-29T00:21:17;35.61;;;15.99;;
61473;SDS011;53694;49.784;30.150;2022-09-29T00:22:19;33.91;;;17.13;;
61473;SDS011;53694;49.784;30.150;2022-09-29T00:23:22;35.55;;;18.61;;
61473;SDS011;53694;49.784;30.150;2022-09-29T00:24:24;36.18;;;17.75;;
61473;SDS011;53694;49.784;30.150;2022-09-29T00:25:26;33.39;;;17.09;;
61473;SDS011;53694;49.784;30.150;2022-09-29T00:26:28;36.99;;;15.98;;
61473;SDS011;53694;49.784;30.150;2022-09-29T00:27:29;30.32;;;15.77;;
61473;SDS011;53694;49.784;30.150;2022-09-29T00:28:31;28.22;;;14.56;;
61473;SDS011;53694;49.784;30.150;2022-09-29T00:29:34;35.80;;;14.73;;
61473;SDS011;53694;49.784;30.150;2022-09-29T00:30:35;24.59;;;12.70;;
61473;SDS011;53694;49.784;30.150;2022-09-29T00:31:37;17.86;;;9.20;;
61473;SDS011;53694;49.784;30.150;2022-09-29T00:32:39;11.73;;;7.07;;
61473;SDS011;53694;49.784;30.150;2022-09-29T00:33:40;13.42;;;7.59;;
61473;SDS011;53694;49.784;30.150;2022-09-29T00:34:42;11.21;;;6.82;;
61473;SDS011;53694;49.784;30.150;2022-09-29T00:35:44;18.04;;;10.10;;
61473;SDS011;53694;49.784;30.150;2022-09-29T00:36:45;18.76;;;9.55;;
61473;SDS011;53694;49.784;30.150;2022-09-29T00:37:47;13.46;;;7.68;;
61473;SDS011;53694;49.784;30.150;2022-09-29T00:38:49;17.60;;;10.06;;
61473;SDS011;53694;49.784;30.150;2022-09-29T00:39:51;20.17;;;9.45;;
61473;SDS011;53694;49.784;30.150;2022-09-29T00:40:53;15.42;;;8.36;;
61473;SDS011;53694;49.784;30.150;2022-09-29T00:41:55;15.35;;;7.66;;
61473;SDS011;53694;49.784;30.150;2022-09-29T00:42:57;19.94;;;9.74;;
61473;SDS011;53694;49.784;30.150;2022-09-29T00:44:00;16.87;;;8.81;;
61473;SDS011;53694;49.784;30.150;2022-09-29T00:46:35;13.49;;;7.46;;
61473;SDS011;53694;49.784;30.150;2022-09-29T00:47:34;14.22;;;7.86;;
61473;SDS011;53694;49.784;30.150;2022-09-29T00:48:39;13.46;;;7.81;;
61473;SDS011;53694;49.784;30.150;2022-09-29T00:51:02;12.68;;;6.84;;
61473;SDS011;53694;49.784;30.150;2022-09-29T00:52:10;19.49;;;8.43;;
61473;SDS011;53694;49.784;30.150;2022-09-29T00:53:09;13.69;;;7.97;;
61473;SDS011;53694;49.784;30.150;2022-09-29T00:54:12;15.14;;;7.99;;
61473;SDS011;53694;49.784;30.150;2022-09-29T00:55:17;14.84;;;8.33;;
61473;SDS011;53694;49.784;30.150;2022-09-29T00:56:20;14.77;;;7.71;;
61473;SDS011;53694;49.784;30.150;2022-09-29T00:57:23;12.31;;;6.87;;
61473;SDS011;53694;49.784;30.150;2022-09-29T00:58:38;13.09;;;7.04;;
61473;SDS011;53694;49.784;30.150;2022-09-29T00:59:49;12.52;;;6.84;;
61473;SDS011;53694;49.784;30.150;2022-09-29T01:00:53;13.17;;;6.91;;
61473;SDS011;53694;49.784;30.150;2022-09-29T01:01:55;11.43;;;6.55;;
61473;SDS011;53694;49.784;30.150;2022-09-29T01:03:01;12.17;;;6.31;;
61473;SDS011;53694;49.784;30.150;2022-09-29T01:04:09;16.42;;;6.57;;
61473;SDS011;53694;49.784;30.150;2022-09-29T01:05:14;11.73;;;6.48;;
61473;SDS011;53694;49.784;30.150;2022-09-29T01:06:19;12.28;;;6.82;;
61473;SDS011;53694;49.784;30.150;2022-09-29T01:07:23;11.96;;;7.07;;
61473;SDS011;53694;49.784;30.150;2022-09-29T01:08:36;11.41;;;6.59;;
61473;SDS011;53694;49.784;30.150;2022-09-29T01:09:44;11.57;;;6.54;;
61473;SDS011;53694;49.784;30.150;2022-09-29T01:10:46;14.83;;;8.30;;
61473;SDS011;53694;49.784;30.150;2022-09-29T01:11:50;13.49;;;7.45;;
61473;SDS011;53694;49.784;30.150;2022-09-29T01:12:51;12.80;;;7.06;;
61473;SDS011;53694;49.784;30.150;2022-09-29T01:13:53;13.09;;;6.27;;
61473;SDS011;53694;49.784;30.150;2022-09-29T01:14:56;12.47;;;6.04;;
61473;SDS011;53694;49.784;30.150;2022-09-29T01:15:58;10.23;;;5.89;;
61473;SDS011;53694;49.784;30.150;2022-09-29T01:17:00;10.86;;;6.02;;
61473;SDS011;53694;49.784;30.150;2022-09-29T01:18:02;8.78;;;4.78;;
61473;SDS011;53694;49.784;30.150;2022-09-29T01:19:05;10.22;;;6.00;;
61473;SDS011;53694;49.784;30.150;2022-09-29T01:20:12;9.23;;;4.99;;
61473;SDS011;53694;49.784;30.150;2022-09-29T01:21:19;6.82;;;3.46;;
61473;SDS011;53694;49.784;30.150;2022-09-29T01:22:31;6.82;;;3.32;;
61473;SDS011;53694;49.784;30.150;2022-09-29T01:23:50;6.79;;;3.28;;
61473;SDS011;53694;49.784;30.150;2022-09-29T01:29:25;10.17;;;6.20;;
61473;SDS011;53694;49.784;30.150;2022-09-29T01:33:26;9.13;;;5.56;;
61473;SDS011;53694;49.784;30.150;2022-09-29T01:34:45;9.66;;;5.46;;
61473;SDS011;53694;49.784;30.150;2022-09-29T01:35:55;10.17;;;5.91;;
61473;SDS011;53694;49.784;30.150;2022-09-29T01:37:09;14.22;;;7.33;;
61473;SDS011;53694;49.784;30.150;2022-09-29T01:40:05;9.19;;;5.13;;
61473;SDS011;53694;49.784;30.150;2022-09-29T01:41:27;7.78;;;4.03;;
61473;SDS011;53694;49.784;30.150;2022-09-29T01:43:07;9.32;;;5.64;;
61473;SDS011;53694;49.784;30.150;2022-09-29T01:43:56;12.99;;;6.72;;
61473;SDS011;53694;49.784;30.150;2022-09-29T01:45:09;14.42;;;9.68;;
61473;SDS011;53694;49.784;30.150;2022-09-29T01:46:12;17.42;;;10.22;;
61473;SDS011;53694;49.784;30.150;2022-09-29T01:48:09;14.56;;;8.98;;
61473;SDS011;53694;49.784;30.150;2022-09-29T01:48:44;21.14;;;11.42;;
61473;SDS011;53694;49.784;30.150;2022-09-29T01:49:50;19.13;;;10.33;;
61473;SDS011;53694;49.784;30.150;2022-09-29T01:50:54;18.49;;;10.42;;
61473;SDS011;53694;49.784;30.150;2022-09-29T01:51:59;14.48;;;8.36;;
61473;SDS011;53694;49.784;30.150;2022-09-29T01:53:06;16.29;;;8.38;;
61473;SDS011;53694;49.784;30.150;2022-09-29T01:54:12;15.14;;;8.03;;
61473;SDS011;53694;49.784;30.150;2022-09-29T01:55:18;13.27;;;8.36;;
61473;SDS011;53694;49.784;30.150;2022-09-29T01:56:30;16.81;;;8.42;;
61473;SDS011;53694;49.784;30.150;2022-09-29T01:57:44;14.51;;;7.81;;
61473;SDS011;53694;49.784;30.150;2022-09-29T01:58:52;15.98;;;8.06;;
61473;SDS011;53694;49.784;30.150;2022-09-29T01:59:57;11.76;;;7.28;;
61473;SDS011;53694;49.784;30.150;2022-09-29T02:01:05;10.63;;;5.67;;
61473;SDS011;53694;49.784;30.150;2022-09-29T02:02:10;10.89;;;6.00;;
61473;SDS011;53694;49.784;30.150;2022-09-29T02:03:25;12.51;;;6.62;;
61473;SDS011;53694;49.784;30.150;2022-09-29T02:04:39;9.55;;;5.99;;
61473;SDS011;53694;49.784;30.150;2022-09-29T02:05:51;10.41;;;6.41;;
61473;SDS011;53694;49.784;30.150;2022-09-29T02:07:02;11.74;;;6.01;;
61473;SDS011;53694;49.784;30.150;2022-09-29T02:08:06;10.97;;;5.76;;
61473;SDS011;53694;49.784;30.150;2022-09-29T02:09:12;9.31;;;5.57;;
61473;SDS011;53694;49.784;30.150;2022-09-29T02:10:18;10.86;;;5.92;;
61473;SDS011;53694;49.784;30.150;2022-09-29T02:11:21;11.77;;;6.32;;
61473;SDS011;53694;49.784;30.150;2022-09-29T02:12:24;12.14;;;6.80;;
61473;SDS011;53694;49.784;30.150;2022-09-29T02:13:34;10.67;;;6.28;;
61473;SDS011;53694;49.784;30.150;2022-09-29T02:14:39;11.15;;;6.64;;
61473;SDS011;53694;49.784;30.150;2022-09-29T02:15:39;10.05;;;6.28;;
61473;SDS011;53694;49.784;30.150;2022-09-29T02:16:47;8.03;;;4.83;;
61473;SDS011;53694;49.784;30.150;2022-09-29T02:17:49;10.46;;;5.11;;
61473;SDS011;53694;49.784;30.150;2022-09-29T02:18:59;10.77;;;5.72;;
61473;SDS011;53694;49.784;30.150;2022-09-29T02:20:15;6.86;;;4.14;;
61473;SDS011;53694;49.784;30.150;2022-09-29T02:21:17;6.39;;;3.31;;
61473;SDS011;53694;49.784;30.150;2022-09-29T02:22:18;8.72;;;4.94;;
61473;SDS011;53694;49.784;30.150;2022-09-29T02:23:20;7.06;;;3.65;;
61473;SDS011;53694;49.784;30.150;2022-09-29T02:24:24;7.43;;;4.26;;
61473;SDS011;53694;49.784;30.150;2022-09-29T02:25:26;8.72;;;4.83;;
61473;SDS011;53694;49.784;30.150;2022-09-29T02:26:29;8.51;;;4.82;;
61473;SDS011;53694;49.784;30.150;2022-09-29T02:27:33;7.02;;;4.44;;
61473;SDS011;53694;49.784;30.150;2022-09-29T02:28:37;9.38;;;4.98;;
61473;SDS011;53694;49.784;30.150;2022-09-29T02:29:38;10.85;;;5.77;;
61473;SDS011;53694;49.784;30.150;2022-09-29T02:30:41;9.13;;;5.69;;
61473;SDS011;53694;49.784;30.150;2022-09-29T02:31:42;9.56;;;5.89;;
61473;SDS011;53694;49.784;30.150;2022-09-29T02:32:47;9.88;;;6.74;;
61473;SDS011;53694;49.784;30.150;2022-09-29T02:33:48;8.80;;;5.30;;
61473;SDS011;53694;49.784;30.150;2022-09-29T02:34:50;9.26;;;6.19;;
61473;SDS011;53694;49.784;30.150;2022-09-29T02:47:26;8.16;;;5.00;;
61473;SDS011;53694;49.784;30.150;2022-09-29T02:50:25;7.74;;;4.24;;
61473;SDS011;53694;49.784;30.150;2022-09-29T02:51:38;8.59;;;5.20;;
61473;SDS011;53694;49.784;30.150;2022-09-29T02:56:27;12.77;;;6.73;;
61473;SDS011;53694;49.784;30.150;2022-09-29T02:57:34;10.29;;;6.45;;
61473;SDS011;53694;49.784;30.150;2022-09-29T02:59:01;11.70;;;6.04;;
61473;SDS011;53694;49.784;30.150;2022-09-29T03:00:15;13.88;;;7.25;;
61473;SDS011;53694;49.784;30.150;2022-09-29T03:01:19;11.31;;;6.59;;
61473;SDS011;53694;49.784;30.150;2022-09-29T03:02:25;14.22;;;6.76;;
61473;SDS011;53694;49.784;30.150;2022-09-29T03:03:27;10.47;;;6.68;;
61473;SDS011;53694;49.784;30.150;2022-09-29T03:04:29;10.81;;;6.16;;
61473;SDS011;53694;49.784;30.150;2022-09-29T03:05:30;9.54;;;5.73;;
61473;SDS011;53694;49.784;30.150;2022-09-29T03:06:32;9.34;;;5.33;;
61473;SDS011;53694;49.784;30.150;2022-09-29T03:07:34;8.36;;;5.54;;
61473;SDS011;53694;49.784;30.150;2022-09-29T03:08:37;10.61;;;6.32;;
61473;SDS011;53694;49.784;30.150;2022-09-29T03:09:39;8.55;;;4.49;;
61473;SDS011;53694;49.784;30.150;2022-09-29T03:10:40;8.80;;;4.42;;
61473;SDS011;53694;49.784;30.150;2022-09-29T03:11:42;7.82;;;4.74;;
61473;SDS011;53694;49.784;30.150;2022-09-29T03:12:44;8.94;;;5.41;;
61473;SDS011;53694;49.784;30.150;2022-09-29T03:13:45;7.34;;;4.40;;
61473;SDS011;53694;49.784;30.150;2022-09-29T03:14:47;9.59;;;5.04;;
61473;SDS011;53694;49.784;30.150;2022-09-29T03:15:48;9.04;;;5.20;;
61473;SDS011;53694;49.784;30.150;2022-09-29T03:16:50;7.86;;;5.53;;
61473;SDS011;53694;49.784;30.150;2022-09-29T03:17:53;9.04;;;5.15;;
61473;SDS011;53694;49.784;30.150;2022-09-29T03:18:55;8.55;;;5.31;;
61473;SDS011;53694;49.784;30.150;2022-09-29T03:19:57;8.90;;;5.45;;
61473;SDS011;53694;49.784;30.150;2022-09-29T03:20:58;8.22;;;5.59;;
61473;SDS011;53694;49.784;30.150;2022-09-29T03:22:00;8.86;;;5.76;;
61473;SDS011;53694;49.784;30.150;2022-09-29T03:23:01;9.51;;;5.25;;
61473;SDS011;53694;49.784;30.150;2022-09-29T03:24:03;9.11;;;5.84;;
61473;SDS011;53694;49.784;30.150;2022-09-29T03:25:05;8.24;;;5.59;;
61473;SDS011;53694;49.784;30.150;2022-09-29T03:26:08;8.79;;;5.36;;
61473;SDS011;53694;49.784;30.150;2022-09-29T03:27:10;7.88;;;4.50;;
61473;SDS011;53694;49.784;30.150;2022-09-29T03:28:12;6.59;;;4.11;;
61473;SDS011;53694;49.784;30.150;2022-09-29T03:29:13;6.01;;;4.13;;
61473;SDS011;53694;49.784;30.150;2022-09-29T03:30:16;8.46;;;4.34;;
61473;SDS011;53694;49.784;30.150;2022-09-29T03:31:18;6.71;;;4.15;;
61473;SDS011;53694;49.784;30.150;2022-09-29T03:32:20;10.36;;;4.84;;
61473;SDS011;53694;49.784;30.150;2022-09-29T03:33:21;7.93;;;4.74;;
61473;SDS011;53694;49.784;30.150;2022-09-29T03:34:23;11.02;;;7.95;;
61473;SDS011;53694;49.784;30.150;2022-09-29T03:35:25;6.17;;;4.36;;
61473;SDS011;53694;49.784;30.150;2022-09-29T03:36:26;6.05;;;4.16;;
61473;SDS011;53694;49.784;30.150;2022-09-29T03:37:28;7.36;;;4.10;;
61473;SDS011;53694;49.784;30.150;2022-09-29T03:38:29;6.87;;;4.84;;
61473;SDS011;53694;49.784;30.150;2022-09-29T03:39:31;8.35;;;4.83;;
61473;SDS011;53694;49.784;30.150;2022-09-29T03:40:33;9.11;;;5.22;;
61473;SDS011;53694;49.784;30.150;2022-09-29T03:41:35;7.48;;;4.73;;
61473;SDS011;53694;49.784;30.150;2022-09-29T03:42:36;7.61;;;5.22;;
61473;SDS011;53694;49.784;30.150;2022-09-29T03:43:39;7.64;;;5.52;;
61473;SDS011;53694;49.784;30.150;2022-09-29T03:44:41;9.26;;;6.54;;
61473;SDS011;53694;49.784;30.150;2022-09-29T03:45:54;13.21;;;8.96;;
61473;SDS011;53694;49.784;30.150;2022-09-29T03:46:53;11.93;;;7.73;;
61473;SDS011;53694;49.784;30.150;2022-09-29T03:47:54;11.69;;;7.92;;
61473;SDS011;53694;49.784;30.150;2022-09-29T03:48:56;11.44;;;7.56;;
61473;SDS011;53694;49.784;30.150;2022-09-29T03:49:57;10.61;;;6.71;;
61473;SDS011;53694;49.784;30.150;2022-09-29T03:50:59;10.89;;;6.96;;
61473;SDS011;53694;49.784;30.150;2022-09-29T03:52:00;9.07;;;6.31;;
61473;SDS011;53694;49.784;30.150;2022-09-29T03:53:02;8.11;;;5.62;;
61473;SDS011;53694;49.784;30.150;2022-09-29T03:54:04;8.02;;;5.09;;
61473;SDS011;53694;49.784;30.150;2022-09-29T03:55:06;9.82;;;5.95;;
61473;SDS011;53694;49.784;30.150;2022-09-29T03:56:08;10.59;;;5.79;;
61473;SDS011;53694;49.784;30.150;2022-09-29T03:57:10;8.58;;;5.14;;
61473;SDS011;53694;49.784;30.150;2022-09-29T03:58:11;7.81;;;4.58;;
61473;SDS011;53694;49.784;30.150;2022-09-29T04:06:16;16.31;;;8.82;;
61473;SDS011;53694;49.784;30.150;2022-09-29T04:07:18;10.39;;;6.31;;
61473;SDS011;53694;49.784;30.150;2022-09-29T04:08:22;8.66;;;6.16;;
61473;SDS011;53694;49.784;30.150;2022-09-29T04:09:24;12.30;;;8.53;;
61473;SDS011;53694;49.784;30.150;2022-09-29T04:10:26;7.34;;;4.91;;
61473;SDS011;53694;49.784;30.150;2022-09-29T04:11:27;7.97;;;5.78;;
61473;SDS011;53694;49.784;30.150;2022-09-29T04:12:29;9.77;;;5.49;;
61473;SDS011;53694;49.784;30.150;2022-09-29T04:13:30;11.60;;;6.29;;
61473;SDS011;53694;49.784;30.150;2022-09-29T04:14:32;8.83;;;4.90;;
61473;SDS011;53694;49.784;30.150;2022-09-29T04:15:34;5.63;;;4.06;;
61473;SDS011;53694;49.784;30.150;2022-09-29T04:16:36;7.25;;;4.55;;
61473;SDS011;53694;49.784;30.150;2022-09-29T04:17:37;6.66;;;3.65;;
61473;SDS011;53694;49.784;30.150;2022-09-29T04:18:39;8.96;;;5.25;;
61473;SDS011;53694;49.784;30.150;2022-09-29T04:19:40;6.18;;;3.49;;
61473;SDS011;53694;49.784;30.150;2022-09-29T04:20:42;6.71;;;3.59;;
61473;SDS011;53694;49.784;30.150;2022-09-29T04:21:44;9.64;;;6.50;;
61473;SDS011;53694;49.784;30.150;2022-09-29T04:22:45;7.54;;;3.27;;
61473;SDS011;53694;49.784;30.150;2022-09-29T04:23:46;12.90;;;7.69;;
61473;SDS011;53694;49.784;30.150;2022-09-29T04:24:48;5.26;;;3.55;;
61473;SDS011;53694;49.784;30.150;2022-09-29T04:25:49;9.86;;;3.58;;
61473;SDS011;53694;49.784;30.150;2022-09-29T04:26:51;5.18;;;3.60;;
61473;SDS011;53694;49.784;30.150;2022-09-29T04:27:53;6.27;;;3.86;;
61473;SDS011;53694;49.784;30.150;2022-09-29T04:28:54;6.94;;;4.08;;
61473;SDS011;53694;49.784;30.150;2022-09-29T04:29:56;5.73;;;4.17;;
61473;SDS011;53694;49.784;30.150;2022-09-29T04:30:57;6.50;;;4.09;;
61473;SDS011;53694;49.784;30.150;2022-09-29T04:31:59;7.77;;;4.11;;
61473;SDS011;53694;49.784;30.150;2022-09-29T04:33:01;6.45;;;4.06;;
61473;SDS011;53694;49.784;30.150;2022-09-29T04:34:03;5.99;;;3.97;;
61473;SDS011;53694;49.784;30.150;2022-09-29T04:35:05;7.34;;;3.69;;
61473;SDS011;53694;49.784;30.150;2022-09-29T04:36:07;5.99;;;3.75;;
61473;SDS011;53694;49.784;30.150;2022-09-29T04:37:09;6.26;;;3.51;;
61473;SDS011;53694;49.784;30.150;2022-09-29T04:38:11;5.73;;;3.58;;
61473;SDS011;53694;49.784;30.150;2022-09-29T04:39:13;7.97;;;4.47;;
61473;SDS011;53694;49.784;30.150;2022-09-29T04:40:15;7.79;;;4.72;;
61473;SDS011;53694;49.784;30.150;2022-09-29T04:41:16;6.58;;;3.78;;
61473;SDS011;53694;49.784;30.150;2022-09-29T04:42:18;6.06;;;3.86;;
61473;SDS011;53694;49.784;30.150;2022-09-29T04:43:20;7.97;;;4.14;;
61473;SDS011;53694;49.784;30.150;2022-09-29T04:44:21;8.66;;;4.59;;
61473;SDS011;53694;49.784;30.150;2022-09-29T04:45:23;7.41;;;4.33;;
61473;SDS011;53694;49.784;30.150;2022-09-29T04:46:24;6.95;;;4.23;;
61473;SDS011;53694;49.784;30.150;2022-09-29T04:47:26;10.43;;;4.94;;
61473;SDS011;53694;49.784;30.150;2022-09-29T04:48:28;8.69;;;4.66;;
61473;SDS011;53694;49.784;30.150;2022-09-29T04:49:29;10.81;;;5.16;;
61473;SDS011;53694;49.784;30.150;2022-09-29T04:50:31;7.16;;;4.84;;
61473;SDS011;53694;49.784;30.150;2022-09-29T04:51:33;8.75;;;4.79;;
61473;SDS011;53694;49.784;30.150;2022-09-29T04:52:35;7.21;;;3.88;;
61473;SDS011;53694;49.784;30.150;2022-09-29T04:53:36;10.30;;;3.70;;
61473;SDS011;53694;49.784;30.150;2022-09-29T04:54:38;6.97;;;3.68;;
61473;SDS011;53694;49.784;30.150;2022-09-29T04:55:40;6.89;;;3.62;;
61473;SDS011;53694;49.784;30.150;2022-09-29T04:56:41;5.40;;;3.63;;
61473;SDS011;53694;49.784;30.150;2022-09-29T04:57:43;6.47;;;3.11;;
61473;SDS011;53694;49.784;30.150;2022-09-29T04:58:44;6.39;;;3.39;;
61473;SDS011;53694;49.784;30.150;2022-09-29T04:59:46;5.34;;;3.29;;
61473;SDS011;53694;49.784;30.150;2022-09-29T05:00:48;6.06;;;3.41;;
61473;SDS011;53694;49.784;30.150;2022-09-29T05:01:49;5.89;;;3.58;;
61473;SDS011;53694;49.784;30.150;2022-09-29T05:02:51;6.98;;;3.43;;
61473;SDS011;53694;49.784;30.150;2022-09-29T05:03:52;7.04;;;3.64;;
61473;SDS011;53694;49.784;30.150;2022-09-29T05:04:54;10.42;;;3.76;;
61473;SDS011;53694;49.784;30.150;2022-09-29T05:05:55;7.68;;;4.01;;
61473;SDS011;53694;49.784;30.150;2022-09-29T05:06:57;6.77;;;4.21;;
61473;SDS011;53694;49.784;30.150;2022-09-29T05:07:59;6.01;;;4.23;;
61473;SDS011;53694;49.784;30.150;2022-09-29T05:09:02;9.23;;;3.98;;
61473;SDS011;53694;49.784;30.150;2022-09-29T05:10:05;7.35;;;4.17;;
61473;SDS011;53694;49.784;30.150;2022-09-29T05:11:08;6.86;;;4.01;;
61473;SDS011;53694;49.784;30.150;2022-09-29T05:12:10;7.29;;;4.70;;
61473;SDS011;53694;49.784;30.150;2022-09-29T05:13:11;6.21;;;3.88;;
61473;SDS011;53694;49.784;30.150;2022-09-29T05:14:13;6.49;;;4.13;;
61473;SDS011;53694;49.784;30.150;2022-09-29T05:15:15;6.10;;;3.06;;
61473;SDS011;53694;49.784;30.150;2022-09-29T05:16:18;4.76;;;2.77;;
61473;SDS011;53694;49.784;30.150;2022-09-29T05:17:19;6.01;;;2.92;;
61473;SDS011;53694;49.784;30.150;2022-09-29T05:18:21;4.99;;;2.70;;
61473;SDS011;53694;49.784;30.150;2022-09-29T05:19:23;5.97;;;3.24;;
61473;SDS011;53694;49.784;30.150;2022-09-29T05:20:25;4.61;;;2.93;;
61473;SDS011;53694;49.784;30.150;2022-09-29T05:21:27;5.72;;;2.91;;
61473;SDS011;53694;49.784;30.150;2022-09-29T05:22:28;5.97;;;3.11;;
61473;SDS011;53694;49.784;30.150;2022-09-29T05:23:31;6.14;;;2.49;;
61473;SDS011;53694;49.784;30.150;2022-09-29T05:24:32;4.74;;;3.27;;
61473;SDS011;53694;49.784;30.150;2022-09-29T05:25:35;7.64;;;3.39;;
61473;SDS011;53694;49.784;30.150;2022-09-29T05:26:37;6.36;;;3.30;;
61473;SDS011;53694;49.784;30.150;2022-09-29T05:27:39;5.99;;;3.74;;
61473;SDS011;53694;49.784;30.150;2022-09-29T05:28:44;6.45;;;3.61;;
61473;SDS011;53694;49.784;30.150;2022-09-29T05:29:47;8.00;;;4.48;;
61473;SDS011;53694;49.784;30.150;2022-09-29T05:30:48;7.18;;;3.98;;
61473;SDS011;53694;49.784;30.150;2022-09-29T05:31:50;6.54;;;3.61;;
61473;SDS011;53694;49.784;30.150;2022-09-29T05:32:52;5.07;;;3.07;;
61473;SDS011;53694;49.784;30.150;2022-09-29T05:33:54;6.99;;;2.89;;
61473;SDS011;53694;49.784;30.150;2022-09-29T05:34:56;6.53;;;3.55;;
61473;SDS011;53694;49.784;30.150;2022-09-29T05:35:58;7.18;;;3.31;;
61473;SDS011;53694;49.784;30.150;2022-09-29T05:36:59;5.57;;;3.09;;
61473;SDS011;53694;49.784;30.150;2022-09-29T05:38:01;5.04;;;3.47;;
61473;SDS011;53694;49.784;30.150;2022-09-29T05:39:03;5.47;;;3.53;;
61473;SDS011;53694;49.784;30.150;2022-09-29T05:40:05;5.54;;;3.43;;
61473;SDS011;53694;49.784;30.150;2022-09-29T05:41:09;7.63;;;3.22;;
61473;SDS011;53694;49.784;30.150;2022-09-29T05:42:12;7.52;;;3.56;;
61473;SDS011;53694;49.784;30.150;2022-09-29T05:43:13;8.10;;;4.21;;
61473;SDS011;53694;49.784;30.150;2022-09-29T05:44:15;8.49;;;4.38;;
61473;SDS011;53694;49.784;30.150;2022-09-29T05:45:16;8.32;;;4.16;;
61473;SDS011;53694;49.784;30.150;2022-09-29T05:46:18;7.06;;;4.35;;
61473;SDS011;53694;49.784;30.150;2022-09-29T05:47:21;7.45;;;5.12;;
61473;SDS011;53694;49.784;30.150;2022-09-29T05:48:22;8.69;;;5.31;;
61473;SDS011;53694;49.784;30.150;2022-09-29T05:49:24;9.49;;;5.49;;
61473;SDS011;53694;49.784;30.150;2022-09-29T05:50:25;7.13;;;4.80;;
61473;SDS011;53694;49.784;30.150;2022-09-29T05:51:27;9.62;;;5.52;;
61473;SDS011;53694;49.784;30.150;2022-09-29T05:52:28;12.58;;;5.91;;
61473;SDS011;53694;49.784;30.150;2022-09-29T05:53:30;9.66;;;5.39;;
61473;SDS011;53694;49.784;30.150;2022-09-29T05:54:32;7.80;;;5.04;;
61473;SDS011;53694;49.784;30.150;2022-09-29T05:55:36;8.96;;;4.49;;
61473;SDS011;53694;49.784;30.150;2022-09-29T05:56:39;8.58;;;4.46;;
61473;SDS011;53694;49.784;30.150;2022-09-29T05:57:40;7.16;;;4.42;;
61473;SDS011;53694;49.784;30.150;2022-09-29T05:58:42;7.24;;;4.36;;
61473;SDS011;53694;49.784;30.150;2022-09-29T05:59:43;7.54;;;5.26;;
61473;SDS011;53694;49.784;30.150;2022-09-29T06:00:45;10.44;;;5.71;;
61473;SDS011;53694;49.784;30.150;2022-09-29T06:01:47;11.45;;;7.03;;
61473;SDS011;53694;49.784;30.150;2022-09-29T06:02:48;10.97;;;6.15;;
61473;SDS011;53694;49.784;30.150;2022-09-29T06:03:52;9.58;;;6.10;;
61473;SDS011;53694;49.784;30.150;2022-09-29T06:04:54;11.02;;;6.55;;
61473;SDS011;53694;49.784;30.150;2022-09-29T06:05:55;14.23;;;7.59;;
61473;SDS011;53694;49.784;30.150;2022-09-29T06:06:57;14.79;;;7.22;;
61473;SDS011;53694;49.784;30.150;2022-09-29T06:07:59;16.84;;;8.66;;
61473;SDS011;53694;49.784;30.150;2022-09-29T06:09:00;17.69;;;10.31;;
61473;SDS011;53694;49.784;30.150;2022-09-29T06:10:03;21.43;;;10.44;;
61473;SDS011;53694;49.784;30.150;2022-09-29T06:12:13;21.17;;;10.93;;
61473;SDS011;53694;49.784;30.150;2022-09-29T06:13:14;22.59;;;11.43;;
61473;SDS011;53694;49.784;30.150;2022-09-29T06:14:16;19.01;;;9.62;;
61473;SDS011;53694;49.784;30.150;2022-09-29T06:15:17;18.54;;;10.91;;
61473;SDS011;53694;49.784;30.150;2022-09-29T06:16:21;16.97;;;8.86;;
61473;SDS011;53694;49.784;30.150;2022-09-29T06:17:25;15.36;;;7.62;;
61473;SDS011;53694;49.784;30.150;2022-09-29T06:18:26;13.25;;;8.26;;
61473;SDS011;53694;49.784;30.150;2022-09-29T06:19:28;16.17;;;8.24;;
61473;SDS011;53694;49.784;30.150;2022-09-29T06:20:30;11.80;;;6.55;;
61473;SDS011;53694;49.784;30.150;2022-09-29T06:21:31;11.64;;;6.26;;
61473;SDS011;53694;49.784;30.150;2022-09-29T06:22:33;11.63;;;5.70;;
61473;SDS011;53694;49.784;30.150;2022-09-29T06:23:35;11.44;;;5.68;;
61473;SDS011;53694;49.784;30.150;2022-09-29T06:24:37;11.03;;;5.29;;
61473;SDS011;53694;49.784;30.150;2022-09-29T06:25:38;11.95;;;5.52;;
61473;SDS011;53694;49.784;30.150;2022-09-29T06:26:40;8.55;;;4.24;;
61473;SDS011;53694;49.784;30.150;2022-09-29T06:27:41;9.11;;;4.97;;
61473;SDS011;53694;49.784;30.150;2022-09-29T06:28:43;8.56;;;4.90;;
61473;SDS011;53694;49.784;30.150;2022-09-29T06:29:44;10.54;;;5.22;;
61473;SDS011;53694;49.784;30.150;2022-09-29T06:30:46;7.70;;;5.10;;
61473;SDS011;53694;49.784;30.150;2022-09-29T06:31:47;9.68;;;5.61;;
61473;SDS011;53694;49.784;30.150;2022-09-29T06:32:49;6.41;;;4.43;;
61473;SDS011;53694;49.784;30.150;2022-09-29T06:33:50;7.54;;;5.19;;
61473;SDS011;53694;49.784;30.150;2022-09-29T06:34:52;15.23;;;6.45;;
61473;SDS011;53694;49.784;30.150;2022-09-29T06:35:54;7.45;;;4.81;;
61473;SDS011;53694;49.784;30.150;2022-09-29T06:36:56;8.47;;;5.15;;
61473;SDS011;53694;49.784;30.150;2022-09-29T06:37:58;8.44;;;4.97;;
61473;SDS011;53694;49.784;30.150;2022-09-29T06:39:00;5.71;;;3.90;;
61473;SDS011;53694;49.784;30.150;2022-09-29T06:40:02;10.79;;;4.16;;
61473;SDS011;53694;49.784;30.150;2022-09-29T06:41:05;8.18;;;4.00;;
61473;SDS011;53694;49.784;30.150;2022-09-29T06:42:06;7.16;;;3.76;;
61473;SDS011;53694;49.784;30.150;2022-09-29T06:43:08;7.51;;;3.12;;
61473;SDS011;53694;49.784;30.150;2022-09-29T06:44:09;4.74;;;2.70;;
61473;SDS011;53694;49.784;30.150;2022-09-29T06:45:11;5.41;;;2.93;;
61473;SDS011;53694;49.784;30.150;2022-09-29T06:46:12;4.15;;;2.73;;
61473;SDS011;53694;49.784;30.150;2022-09-29T06:47:14;5.41;;;2.58;;
61473;SDS011;53694;49.784;30.150;2022-09-29T06:48:16;5.64;;;3.11;;
61473;SDS011;53694;49.784;30.150;2022-09-29T06:49:18;7.46;;;3.19;;
61473;SDS011;53694;49.784;30.150;2022-09-29T06:50:20;6.52;;;3.69;;